Aeroporto :
LOGIN :

Iscrizione | Disclaimer

   EN    FR    IT 

 










Sommario :    VFR   VFR Marginale   IFR   IFR Intensivo   IFR Molto Intensivo
Visibilità : 
Base nubi : 
>= 8 km
>= 3000ft
5 / 8 km
1000 / 3000 ft
1500m / 5 km
500 / 1000 ft
800 / 1500m
200 / 500 ft
< 800m
< 200 ft
Simboli :   Temporali  Nebbia  Neve Forte  Precipitazioni Forti  Vento > 20 kt
SIGMETs :   Varie  Temporali  Ghiacco  Turbolenza  Onda orograficha  Ceneri Vulcaniche






- Altitudine del aeroporto : 1460 ft


LSMA - Alpnach

ULTIMO METAR :
  • 261750Z AUTO 05011KT 9999NDV FEW070 19/05 Q1031 RMK

METARs OBSOLETI :
  • 261720Z AUTO 04011KT 010V070 9999NDV FEW069 19/06 Q1030 RMK
  • 261650Z AUTO 05010KT 010V080 9999NDV FEW069 20/08 Q1030 RMK
  • 261620Z AUTO 04011KT 010V070 9999NDV NCD 20/06 Q1030 RMK
  • 261550Z AUTO 05011G21KT 010V070 9999NDV NCD 20/07 Q1030 RMK

Previsioni scadute.



MetMap, La meteo Aeronautica in un colpo d'occhio ! - Copyright ORBIFLY Dicembre 2007 - Disclaimer

ORBIFLY MET'MAP TEAM :

Programmazione e sviluppo : Alexandra Zaïnal
Concezione : Baudouin d'Aumeries
Aiuto per la programmazione : Marc-Olivier Méhu
Supporto tecnico e logistico : Manuel Goepfert
Aiuto per la traduzione : Arnaldo La Scala

Contatto : metmap@orbifly.com




FONTI E CREDITI :

   NOAA